Time;durP1;ratioP1;P1;durP2;ratioP2;P2;SDS_P1;SDS_P2;PMS_P1;PMS_P2;Temp;Humidity;BMP_temperature;BMP_pressure;BME280_temperature;BME280_humidity;BME280_pressure;Samples;Min_cycle;Max_cycle;Signal;HPM_P1;HPM_P2
2022/10/01 00:00:25;;;;;;;1.50;1.30;;;;;;;;;;5067992;28;20025;-44
2022/10/01 00:02:55;;;;;;;1.77;1.50;;;;;;;;;;5067451;28;20029;-42
2022/10/01 00:05:21;;;;;;;1.23;1.00;;;;;;;;;;5067289;28;20021;-42
2022/10/01 00:07:48;;;;;;;1.45;1.33;;;;;;;;;;5067163;28;20035;-41
2022/10/01 00:10:15;;;;;;;1.42;1.33;;;;;;;;;;5067506;28;20296;-42
2022/10/01 00:12:44;;;;;;;1.40;1.20;;;;;;;;;;5067189;28;20032;-42
2022/10/01 00:15:11;;;;;;;1.42;1.30;;;;;;;;;;5067426;28;20431;-42
2022/10/01 00:17:37;;;;;;;1.65;1.38;;;;;;;;;;5067081;28;20060;-42
2022/10/01 00:20:03;;;;;;;1.55;1.05;;;;;;;;;;5067179;28;20543;-42
2022/10/01 00:22:33;;;;;;;1.30;1.02;;;;;;;;;;5067034;28;20025;-41
2022/10/01 00:24:59;;;;;;;2.83;1.30;;;;;;;;;;5067176;28;20029;-42
2022/10/01 00:27:26;;;;;;;1.00;0.80;;;;;;;;;;5066761;28;20032;-42
2022/10/01 00:29:52;;;;;;;2.40;1.20;;;;;;;;;;5067146;28;20039;-42
2022/10/01 00:32:19;;;;;;;1.20;1.10;;;;;;;;;;5067222;28;20064;-42
2022/10/01 00:34:45;;;;;;;1.20;1.10;;;;;;;;;;5066906;28;20095;-42
2022/10/01 00:37:11;;;;;;;3.05;1.48;;;;;;;;;;5066883;28;20116;-42
2022/10/01 00:39:37;;;;;;;0.80;0.80;;;;;;;;;;5066688;28;20021;-42
2022/10/01 00:42:04;;;;;;;1.65;0.93;;;;;;;;;;5066802;28;20108;-42
2022/10/01 00:44:31;;;;;;;1.95;1.17;;;;;;;;;;5066667;28;20016;-42
2022/10/01 00:47:01;;;;;;;1.70;1.10;;;;;;;;;;5066880;28;20108;-41
2022/10/01 00:49:28;;;;;;;0.93;0.82;;;;;;;;;;5066201;28;20024;-41
2022/10/01 00:51:56;;;;;;;0.95;0.90;;;;;;;;;;5066945;28;20111;-42
2022/10/01 00:54:29;;;;;;;1.00;0.80;;;;;;;;;;5066683;28;20036;-41
2022/10/01 00:56:57;;;;;;;1.40;0.90;;;;;;;;;;5066632;28;20048;-41
2022/10/01 00:59:25;;;;;;;1.33;1.00;;;;;;;;;;5066396;28;20518;-42
2022/10/01 01:01:51;;;;;;;1.00;0.90;;;;;;;;;;5067114;28;20028;-42
2022/10/01 01:04:17;;;;;;;1.00;0.90;;;;;;;;;;5066600;28;20032;-42
2022/10/01 01:06:45;;;;;;;1.15;1.02;;;;;;;;;;5066152;28;20056;-42
2022/10/01 01:09:11;;;;;;;1.40;1.08;;;;;;;;;;5073938;28;20565;-41
2022/10/01 01:11:48;;;;;;;0.70;0.70;;;;;;;;;;5085210;28;20020;-42
2022/10/01 01:14:25;;;;;;;1.45;1.15;;;;;;;;;;5072686;28;20031;-42
2022/10/01 01:16:56;;;;;;;0.70;0.70;;;;;;;;;;5064216;28;20043;-42
2022/10/01 01:19:42;;;;;;;0.80;0.80;;;;;;;;;;5064379;28;20032;-42
2022/10/01 01:22:12;;;;;;;1.15;0.93;;;;;;;;;;5063942;28;20016;-42
2022/10/01 01:24:44;;;;;;;1.10;0.90;;;;;;;;;;5063499;28;20025;-42
2022/10/01 01:27:15;;;;;;;1.00;0.82;;;;;;;;;;5063681;28;20025;-42
2022/10/01 01:29:41;;;;;;;1.73;1.02;;;;;;;;;;5063674;28;20025;-42
2022/10/01 01:32:11;;;;;;;2.90;1.00;;;;;;;;;;5063774;28;20040;-41
2022/10/01 01:34:39;;;;;;;0.95;0.82;;;;;;;;;;5063500;28;20033;-42
2022/10/01 01:37:11;;;;;;;0.73;0.68;;;;;;;;;;5063984;28;20031;-43
2022/10/01 01:39:38;;;;;;;1.13;0.90;;;;;;;;;;5063511;28;20071;-42
2022/10/01 01:42:06;;;;;;;1.35;0.85;;;;;;;;;;5064006;28;20112;-41
2022/10/01 01:44:35;;;;;;;1.73;0.90;;;;;;;;;;5063499;28;20060;-41
2022/10/01 01:47:03;;;;;;;1.20;1.02;;;;;;;;;;5063930;28;20080;-42
2022/10/01 01:49:30;;;;;;;1.38;0.90;;;;;;;;;;5063443;28;20056;-42
2022/10/01 01:51:56;;;;;;;1.08;0.85;;;;;;;;;;5064658;28;20233;-42
2022/10/01 01:54:24;;;;;;;1.13;0.90;;;;;;;;;;5064062;28;20032;-41
2022/10/01 01:56:50;;;;;;;0.70;0.70;;;;;;;;;;5063677;28;20549;-42
2022/10/01 01:59:18;;;;;;;1.35;0.82;;;;;;;;;;5064019;28;20032;-42
2022/10/01 02:01:48;;;;;;;0.77;0.70;;;;;;;;;;5063433;28;20112;-42
2022/10/01 02:04:17;;;;;;;0.80;0.60;;;;;;;;;;5063728;28;20028;-42
2022/10/01 02:06:43;;;;;;;0.70;0.70;;;;;;;;;;5063127;28;20122;-43
2022/10/01 02:09:15;;;;;;;1.58;0.88;;;;;;;;;;5063469;28;20036;-42
2022/10/01 02:11:47;;;;;;;1.25;1.08;;;;;;;;;;5063470;28;20056;-42
2022/10/01 02:14:12;;;;;;;1.45;1.05;;;;;;;;;;5063570;28;20042;-42
2022/10/01 02:17:09;;;;;;;1.73;1.00;;;;;;;;;;5063077;28;20131;-42
2022/10/01 02:19:36;;;;;;;1.63;1.02;;;;;;;;;;5009107;28;20037;-42
2022/10/01 02:22:07;;;;;;;1.45;0.90;;;;;;;;;;5063599;28;20450;-42
2022/10/01 02:24:36;;;;;;;1.35;0.90;;;;;;;;;;5063568;28;20139;-42
2022/10/01 02:27:05;;;;;;;1.40;1.13;;;;;;;;;;5063196;28;20024;-42
2022/10/01 02:29:32;;;;;;;1.20;1.10;;;;;;;;;;5062985;28;20492;-42
2022/10/01 02:31:59;;;;;;;1.70;1.30;;;;;;;;;;5066656;28;20024;-42
2022/10/01 02:34:28;;;;;;;1.40;1.20;;;;;;;;;;5067176;28;20033;-42
2022/10/01 02:36:55;;;;;;;2.55;1.45;;;;;;;;;;5067419;28;20515;-41
2022/10/01 02:39:21;;;;;;;2.03;1.52;;;;;;;;;;5066593;28;20518;-42
2022/10/01 02:41:49;;;;;;;1.50;1.33;;;;;;;;;;5066746;28;20104;-42
2022/10/01 02:44:20;;;;;;;1.80;1.42;;;;;;;;;;5066849;28;20086;-42
2022/10/01 02:46:52;;;;;;;1.45;1.33;;;;;;;;;;5066531;28;20051;-42
2022/10/01 02:49:18;;;;;;;1.33;1.02;;;;;;;;;;5066528;28;20032;-42
2022/10/01 02:51:56;;;;;;;1.90;1.33;;;;;;;;;;5066912;28;20454;-42
2022/10/01 02:54:43;;;;;;;1.75;1.55;;;;;;;;;;5066903;28;20035;-42
2022/10/01 02:57:21;;;;;;;2.13;1.60;;;;;;;;;;5055745;28;20090;-42
2022/10/01 02:59:49;;;;;;;1.90;1.33;;;;;;;;;;5066323;28;20028;-42
2022/10/01 03:02:15;;;;;;;2.33;1.40;;;;;;;;;;5066400;28;20020;-42
2022/10/01 03:04:42;;;;;;;2.15;1.52;;;;;;;;;;5066096;28;20025;-41
2022/10/01 03:07:09;;;;;;;1.30;1.20;;;;;;;;;;5066593;28;20021;-42
2022/10/01 03:09:35;;;;;;;1.10;1.00;;;;;;;;;;5067203;28;20021;-42
2022/10/01 03:12:02;;;;;;;1.33;1.23;;;;;;;;;;5066447;28;20051;-41
2022/10/01 03:14:28;;;;;;;3.35;1.38;;;;;;;;;;5066175;28;20071;-42
2022/10/01 03:16:54;;;;;;;1.95;1.50;;;;;;;;;;5076764;28;20020;-42
2022/10/01 03:19:20;;;;;;;2.83;1.60;;;;;;;;;;5086287;28;20058;-42
2022/10/01 03:21:46;;;;;;;2.50;1.40;;;;;;;;;;5086203;28;20024;-42
2022/10/01 03:24:12;;;;;;;1.80;1.40;;;;;;;;;;5086269;28;20039;-42
2022/10/01 03:26:38;;;;;;;2.22;1.35;;;;;;;;;;5086533;28;20028;-42
2022/10/01 03:29:05;;;;;;;2.10;1.40;;;;;;;;;;5086536;28;20032;-42
2022/10/01 03:31:31;;;;;;;1.58;1.40;;;;;;;;;;5085793;28;20028;-42
2022/10/01 03:33:59;;;;;;;2.15;1.60;;;;;;;;;;5085710;28;20394;-41
2022/10/01 03:36:28;;;;;;;2.30;1.50;;;;;;;;;;5085857;28;20028;-42
2022/10/01 03:38:55;;;;;;;2.97;1.80;;;;;;;;;;5085975;28;20085;-41
2022/10/01 03:41:20;;;;;;;2.08;1.80;;;;;;;;;;5085415;28;20521;-42
2022/10/01 03:43:46;;;;;;;1.77;1.50;;;;;;;;;;5085257;28;20032;-41
2022/10/01 03:46:12;;;;;;;1.88;1.67;;;;;;;;;;5085567;28;20024;-42
2022/10/01 03:48:38;;;;;;;2.03;1.58;;;;;;;;;;5085922;28;20119;-41
2022/10/01 03:51:04;;;;;;;1.88;1.50;;;;;;;;;;5086067;28;20107;-42
2022/10/01 03:53:31;;;;;;;2.30;1.48;;;;;;;;;;5085749;28;20131;-42
2022/10/01 03:55:58;;;;;;;2.65;1.88;;;;;;;;;;5085861;28;20039;-42
2022/10/01 03:58:24;;;;;;;1.95;1.50;;;;;;;;;;5085627;28;20186;-41
2022/10/01 04:00:50;;;;;;;1.55;1.30;;;;;;;;;;5085088;28;20031;-42
2022/10/01 04:03:17;;;;;;;2.45;1.80;;;;;;;;;;5085215;28;20536;-42
2022/10/01 04:05:43;;;;;;;1.52;1.42;;;;;;;;;;5085259;28;20035;-42
2022/10/01 04:08:10;;;;;;;2.78;1.70;;;;;;;;;;5085836;28;20028;-41
2022/10/01 04:10:36;;;;;;;2.97;1.48;;;;;;;;;;5085581;28;20036;-42
2022/10/01 04:13:04;;;;;;;2.28;1.50;;;;;;;;;;5085601;28;20422;-41
2022/10/01 04:15:31;;;;;;;2.65;1.40;;;;;;;;;;5085332;28;20024;-42
2022/10/01 04:17:57;;;;;;;3.10;1.60;;;;;;;;;;5084946;28;20020;-43
2022/10/01 04:20:25;;;;;;;2.38;2.08;;;;;;;;;;5085017;28;20461;-42
2022/10/01 04:22:51;;;;;;;2.67;2.13;;;;;;;;;;5084927;28;20357;-42
2022/10/01 04:25:17;;;;;;;2.45;2.05;;;;;;;;;;5085172;28;20434;-42
2022/10/01 04:27:56;;;;;;;3.20;2.28;;;;;;;;;;5084779;28;20042;-41
2022/10/01 04:30:22;;;;;;;2.65;1.88;;;;;;;;;;5084700;28;20032;-42
2022/10/01 04:32:49;;;;;;;2.28;2.03;;;;;;;;;;5084657;28;20032;-41
2022/10/01 04:35:15;;;;;;;3.88;2.22;;;;;;;;;;5085111;28;20070;-42
2022/10/01 04:37:41;;;;;;;3.10;2.00;;;;;;;;;;5084831;28;20104;-41
2022/10/01 04:40:09;;;;;;;2.67;2.10;;;;;;;;;;5085180;28;20496;-42
2022/10/01 04:42:41;;;;;;;2.17;1.92;;;;;;;;;;5085026;28;20031;-42
2022/10/01 04:45:07;;;;;;;3.20;2.20;;;;;;;;;;5085139;28;20524;-41
2022/10/01 04:47:34;;;;;;;2.97;2.40;;;;;;;;;;5084451;28;20032;-42
2022/10/01 04:50:00;;;;;;;3.38;2.10;;;;;;;;;;5084591;28;20136;-42
2022/10/01 04:52:26;;;;;;;2.92;2.35;;;;;;;;;;5084507;28;20128;-42
2022/10/01 04:54:52;;;;;;;2.53;2.20;;;;;;;;;;5084094;28;20483;-42
2022/10/01 04:57:22;;;;;;;3.28;2.40;;;;;;;;;;5084856;28;20020;-42
2022/10/01 04:59:49;;;;;;;2.65;2.15;;;;;;;;;;5083885;28;20024;-41
2022/10/01 05:02:16;;;;;;;2.47;2.08;;;;;;;;;;5084302;28;20030;-42
2022/10/01 05:04:42;;;;;;;3.00;2.20;;;;;;;;;;5082711;28;20059;-41
2022/10/01 05:07:08;;;;;;;2.60;2.25;;;;;;;;;;5086173;28;20176;-42
2022/10/01 05:09:34;;;;;;;2.40;1.80;;;;;;;;;;5084942;28;20757;-41
2022/10/01 05:12:00;;;;;;;2.10;1.80;;;;;;;;;;5064612;28;20036;-42
2022/10/01 05:14:26;;;;;;;3.03;1.88;;;;;;;;;;5063872;28;20193;-42
2022/10/01 05:16:52;;;;;;;1.77;1.65;;;;;;;;;;5063810;28;20099;-42
2022/10/01 05:19:19;;;;;;;2.63;1.70;;;;;;;;;;5064197;28;20444;-41
2022/10/01 05:21:45;;;;;;;2.55;2.00;;;;;;;;;;5063841;28;20017;-41
2022/10/01 05:24:14;;;;;;;3.95;2.15;;;;;;;;;;5064527;28;20024;-42
2022/10/01 05:26:40;;;;;;;3.10;2.22;;;;;;;;;;5064432;28;20093;-41
2022/10/01 05:29:07;;;;;;;2.92;2.00;;;;;;;;;;5063918;28;20091;-42
2022/10/01 05:31:33;;;;;;;4.82;2.08;;;;;;;;;;5063527;28;20487;-41
2022/10/01 05:34:00;;;;;;;2.85;2.22;;;;;;;;;;5063765;28;20028;-41
2022/10/01 05:36:26;;;;;;;2.90;2.28;;;;;;;;;;5063979;28;20032;-41
2022/10/01 05:38:52;;;;;;;2.15;1.92;;;;;;;;;;5063620;28;20128;-42
2022/10/01 05:41:18;;;;;;;3.20;2.15;;;;;;;;;;5063782;28;20043;-42
2022/10/01 05:43:47;;;;;;;2.85;2.10;;;;;;;;;;5063837;28;20423;-42
2022/10/01 05:46:13;;;;;;;3.60;2.33;;;;;;;;;;5063630;28;20021;-41
2022/10/01 05:48:39;;;;;;;2.97;2.20;;;;;;;;;;5064179;28;20033;-41
2022/10/01 05:51:06;;;;;;;2.90;2.42;;;;;;;;;;5063797;28;20064;-41
2022/10/01 05:53:36;;;;;;;4.00;2.35;;;;;;;;;;5063304;28;20479;-41
2022/10/01 05:56:02;;;;;;;2.55;2.30;;;;;;;;;;5063867;28;20411;-42
2022/10/01 05:58:29;;;;;;;3.22;2.30;;;;;;;;;;5065935;28;20104;-41
2022/10/01 06:00:56;;;;;;;4.97;3.38;;;;;;;;;;5073573;28;20025;-41
2022/10/01 06:03:22;;;;;;;4.05;2.65;;;;;;;;;;5065204;28;20040;-41
2022/10/01 06:05:48;;;;;;;3.15;2.55;;;;;;;;;;5084238;28;20020;-41
2022/10/01 06:08:14;;;;;;;3.65;2.60;;;;;;;;;;5088078;28;20043;-41
2022/10/01 06:10:40;;;;;;;4.82;3.33;;;;;;;;;;5089658;28;20523;-41
2022/10/01 06:13:07;;;;;;;3.53;2.67;;;;;;;;;;5089756;28;20044;-42
2022/10/01 06:15:36;;;;;;;2.35;2.03;;;;;;;;;;5088575;28;20020;-41
2022/10/01 06:18:04;;;;;;;2.47;1.83;;;;;;;;;;5070947;28;20032;-41
2022/10/01 06:20:30;;;;;;;2.13;1.83;;;;;;;;;;5068631;28;20017;-41
2022/10/01 06:22:57;;;;;;;3.03;2.20;;;;;;;;;;5068495;28;20036;-41
2022/10/01 06:25:24;;;;;;;2.53;2.10;;;;;;;;;;5074909;28;20028;-41
2022/10/01 06:27:55;;;;;;;2.45;2.05;;;;;;;;;;5074003;28;20036;-41
2022/10/01 06:30:21;;;;;;;3.78;2.72;;;;;;;;;;5068697;28;20036;-41
2022/10/01 06:32:47;;;;;;;6.40;3.70;;;;;;;;;;5068294;28;20028;-41
2022/10/01 06:35:13;;;;;;;5.35;3.60;;;;;;;;;;5068942;28;20130;-41
2022/10/01 06:37:39;;;;;;;6.55;3.72;;;;;;;;;;5070719;28;20429;-41
2022/10/01 06:40:06;;;;;;;4.68;3.20;;;;;;;;;;5088884;28;20027;-40
2022/10/01 06:42:32;;;;;;;5.65;3.50;;;;;;;;;;5088626;28;20423;-41
2022/10/01 06:44:58;;;;;;;4.43;3.03;;;;;;;;;;5088669;28;20027;-41
2022/10/01 06:47:24;;;;;;;3.28;2.75;;;;;;;;;;5088617;28;20110;-41
2022/10/01 06:49:50;;;;;;;3.42;2.53;;;;;;;;;;5088211;28;20827;-41
2022/10/01 06:55:01;;;;;;;2.92;2.00;;;;;;;;;;5087316;28;20035;-41
2022/10/01 06:57:28;;;;;;;3.08;2.25;;;;;;;;;;5068548;28;20020;-41
2022/10/01 06:59:54;;;;;;;2.60;2.10;;;;;;;;;;5088310;28;20028;-41
2022/10/01 07:02:27;;;;;;;2.80;1.70;;;;;;;;;;5088576;28;20136;-41
2022/10/01 07:04:57;;;;;;;2.30;1.80;;;;;;;;;;5077560;28;20017;-41
2022/10/01 07:07:23;;;;;;;1.38;1.27;;;;;;;;;;5088434;28;20166;-41
2022/10/01 07:09:49;;;;;;;2.05;1.63;;;;;;;;;;5073407;28;20384;-41
2022/10/01 07:12:15;;;;;;;2.88;2.10;;;;;;;;;;5083574;28;20121;-42
2022/10/01 07:14:41;;;;;;;2.70;1.92;;;;;;;;;;5073197;28;20597;-41
2022/10/01 07:17:07;;;;;;;3.95;2.30;;;;;;;;;;5083728;28;20039;-41
2022/10/01 07:19:33;;;;;;;2.33;1.98;;;;;;;;;;5087275;28;20024;-41
2022/10/01 07:21:59;;;;;;;3.22;1.95;;;;;;;;;;5085987;28;20119;-41
2022/10/01 07:24:26;;;;;;;2.03;1.75;;;;;;;;;;5088034;28;20054;-41
2022/10/01 07:26:54;;;;;;;3.42;1.90;;;;;;;;;;5087399;28;20043;-41
2022/10/01 07:29:21;;;;;;;2.60;1.80;;;;;;;;;;5087913;28;20085;-41
2022/10/01 07:31:48;;;;;;;2.72;1.77;;;;;;;;;;5087333;28;20035;-41
2022/10/01 07:34:14;;;;;;;3.20;1.60;;;;;;;;;;5087530;28;20077;-41
2022/10/01 07:36:44;;;;;;;3.90;1.63;;;;;;;;;;5087673;28;20028;-41
2022/10/01 07:39:10;;;;;;;2.90;2.10;;;;;;;;;;5088217;28;20016;-41
2022/10/01 07:41:36;;;;;;;2.75;1.85;;;;;;;;;;5086955;28;20632;-40
2022/10/01 07:44:03;;;;;;;2.20;1.67;;;;;;;;;;5086550;28;20024;-41
2022/10/01 07:46:29;;;;;;;3.30;1.95;;;;;;;;;;5086598;28;20024;-41
2022/10/01 07:48:55;;;;;;;2.50;2.10;;;;;;;;;;5086097;28;20028;-41
2022/10/01 07:51:22;;;;;;;2.13;1.77;;;;;;;;;;5086222;28;20039;-41
2022/10/01 07:53:49;;;;;;;2.33;1.52;;;;;;;;;;5086429;28;20035;-41
2022/10/01 07:56:15;;;;;;;1.92;1.50;;;;;;;;;;5084705;28;20039;-41
2022/10/01 07:58:42;;;;;;;2.38;1.80;;;;;;;;;;5087795;28;20024;-41
2022/10/01 08:01:08;;;;;;;1.73;1.30;;;;;;;;;;5087104;28;20046;-41
2022/10/01 08:03:35;;;;;;;2.63;1.67;;;;;;;;;;5087618;28;20032;-41
2022/10/01 08:06:08;;;;;;;1.38;1.15;;;;;;;;;;5085076;28;20759;-41
2022/10/01 08:08:34;;;;;;;1.30;1.20;;;;;;;;;;5086453;28;20051;-41
2022/10/01 08:11:03;;;;;;;2.22;1.30;;;;;;;;;;5086284;28;20073;-41
2022/10/01 08:13:29;;;;;;;1.42;1.27;;;;;;;;;;5086315;28;20780;-42
2022/10/01 08:15:55;;;;;;;1.67;1.30;;;;;;;;;;5087018;28;20024;-42
2022/10/01 08:18:22;;;;;;;1.67;1.20;;;;;;;;;;5080045;28;20032;-41
2022/10/01 08:20:48;;;;;;;1.63;1.02;;;;;;;;;;5074671;28;20039;-42
2022/10/01 08:23:15;;;;;;;1.70;1.10;;;;;;;;;;5085106;28;20986;-42
2022/10/01 08:25:42;;;;;;;1.05;0.93;;;;;;;;;;5087171;28;20036;-42
2022/10/01 08:28:09;;;;;;;1.88;0.80;;;;;;;;;;5086438;28;20063;-42
2022/10/01 08:30:38;;;;;;;1.40;0.90;;;;;;;;;;5085236;28;20035;-41
2022/10/01 08:33:04;;;;;;;1.25;0.90;;;;;;;;;;5084781;28;20032;-40
2022/10/01 08:35:31;;;;;;;1.63;1.08;;;;;;;;;;5084678;28;20101;-40
2022/10/01 08:38:06;;;;;;;1.83;1.00;;;;;;;;;;5084551;28;20101;-40
2022/10/01 08:40:37;;;;;;;0.80;0.65;;;;;;;;;;5084749;28;20028;-40
2022/10/01 08:43:06;;;;;;;0.95;0.70;;;;;;;;;;5084969;28;20727;-40
2022/10/01 08:45:35;;;;;;;1.02;0.70;;;;;;;;;;5084537;28;20028;-40
2022/10/01 08:48:14;;;;;;;1.02;0.93;;;;;;;;;;5084503;28;20031;-40
2022/10/01 08:50:48;;;;;;;1.00;0.80;;;;;;;;;;5084849;28;20032;-40
2022/10/01 08:53:21;;;;;;;0.98;0.80;;;;;;;;;;5084529;28;20027;-40
2022/10/01 08:55:48;;;;;;;0.52;0.52;;;;;;;;;;5084469;28;20039;-40
2022/10/01 08:58:18;;;;;;;0.77;0.70;;;;;;;;;;5084210;28;20027;-40
2022/10/01 09:00:44;;;;;;;0.70;0.68;;;;;;;;;;5084695;28;20024;-40
2022/10/01 09:03:13;;;;;;;1.38;0.80;;;;;;;;;;5080032;28;20096;-40
2022/10/01 09:05:50;;;;;;;1.05;0.70;;;;;;;;;;5064976;28;20033;-40
2022/10/01 09:08:23;;;;;;;2.08;0.88;;;;;;;;;;5073160;28;20032;-41
2022/10/01 09:10:52;;;;;;;0.90;0.80;;;;;;;;;;5064263;28;20407;-41
2022/10/01 09:13:18;;;;;;;0.70;0.70;;;;;;;;;;5063948;28;20028;-40
2022/10/01 09:15:56;;;;;;;0.73;0.73;;;;;;;;;;5063933;28;20538;-41
2022/10/01 09:18:40;;;;;;;1.02;0.85;;;;;;;;;;5064084;28;20411;-41
2022/10/01 09:21:07;;;;;;;;;;;;;;;;;;5064400;28;20105;-40
2022/10/01 09:23:41;;;;;;;1.13;1.00;;;;;;;;;;5063895;28;19908;-41
2022/10/01 09:26:10;;;;;;;1.73;1.30;;;;;;;;;;5064072;28;20029;-41
2022/10/01 09:28:38;;;;;;;1.58;1.23;;;;;;;;;;5063576;28;20032;-41
2022/10/01 09:31:13;;;;;;;1.30;1.20;;;;;;;;;;5064140;28;20055;-41
2022/10/01 09:33:49;;;;;;;2.53;1.17;;;;;;;;;;5064324;28;20385;-41
2022/10/01 09:36:18;;;;;;;1.17;1.08;;;;;;;;;;5063643;28;20408;-41
2022/10/01 09:38:47;;;;;;;3.30;1.30;;;;;;;;;;5063751;28;20046;-41
2022/10/01 09:41:16;;;;;;;1.85;1.10;;;;;;;;;;5064986;28;20052;-41
2022/10/01 09:43:43;;;;;;;2.00;1.27;;;;;;;;;;5068482;28;20025;-41
2022/10/01 09:46:12;;;;;;;1.58;1.30;;;;;;;;;;5068520;28;20028;-41
2022/10/01 09:48:45;;;;;;;1.70;1.25;;;;;;;;;;5068129;28;20020;-41
2022/10/01 09:51:11;;;;;;;1.15;1.00;;;;;;;;;;5068261;28;20205;-41
2022/10/01 09:53:40;;;;;;;1.70;1.10;;;;;;;;;;5067596;28;20063;-41
2022/10/01 09:56:11;;;;;;;1.63;1.23;;;;;;;;;;5067806;28;20024;-41
2022/10/01 09:58:39;;;;;;;1.83;1.20;;;;;;;;;;5066951;28;20404;-42
2022/10/01 10:01:11;;;;;;;1.67;1.30;;;;;;;;;;5067653;28;20029;-41
2022/10/01 10:03:37;;;;;;;1.60;1.25;;;;;;;;;;5067576;28;20035;-41
2022/10/01 10:06:05;;;;;;;1.55;1.05;;;;;;;;;;5067348;28;20032;-42
2022/10/01 10:08:32;;;;;;;1.50;1.38;;;;;;;;;;5067293;28;20493;-41
2022/10/01 10:10:59;;;;;;;1.52;1.20;;;;;;;;;;5067220;28;20423;-42
2022/10/01 10:13:41;;;;;;;1.90;1.30;;;;;;;;;;5067199;28;20025;-42
2022/10/01 10:16:26;;;;;;;1.30;1.08;;;;;;;;;;5067124;28;20032;-41
2022/10/01 10:18:56;;;;;;;1.70;1.27;;;;;;;;;;5066953;28;20104;-41
2022/10/01 10:21:26;;;;;;;1.10;1.00;;;;;;;;;;5067488;28;20283;-41
2022/10/01 10:23:53;;;;;;;1.98;1.20;;;;;;;;;;5065451;28;20031;-41
2022/10/01 10:26:27;;;;;;;1.58;1.13;;;;;;;;;;5067151;28;20035;-42
2022/10/01 10:28:55;;;;;;;1.20;1.10;;;;;;;;;;5066996;28;20055;-41
2022/10/01 10:31:25;;;;;;;1.20;1.00;;;;;;;;;;5066804;28;20028;-42
2022/10/01 10:34:05;;;;;;;1.20;1.10;;;;;;;;;;5066571;28;20016;-41
2022/10/01 10:36:36;;;;;;;1.60;1.27;;;;;;;;;;5066816;28;20035;-42
2022/10/01 10:39:04;;;;;;;2.30;1.45;;;;;;;;;;5066794;28;20024;-42
2022/10/01 10:41:31;;;;;;;1.85;1.35;;;;;;;;;;5066093;28;20470;-42
2022/10/01 10:43:59;;;;;;;2.38;1.30;;;;;;;;;;5066634;28;20108;-42
2022/10/01 10:46:30;;;;;;;2.00;1.30;;;;;;;;;;5066899;28;20042;-41
2022/10/01 10:48:59;;;;;;;1.67;1.13;;;;;;;;;;5066475;28;20450;-41
2022/10/01 10:51:27;;;;;;;1.73;1.35;;;;;;;;;;5066011;28;20032;-41
2022/10/01 10:53:53;;;;;;;2.15;1.27;;;;;;;;;;5066468;28;20134;-41
2022/10/01 10:56:21;;;;;;;1.38;1.27;;;;;;;;;;5066394;28;20020;-41
2022/10/01 10:58:47;;;;;;;1.17;1.02;;;;;;;;;;5082587;28;20494;-42
2022/10/01 11:01:16;;;;;;;1.58;1.17;;;;;;;;;;5077895;28;20063;-41
2022/10/01 11:03:47;;;;;;;1.67;0.80;;;;;;;;;;5073985;28;20028;-41
2022/10/01 11:06:14;;;;;;;1.25;0.90;;;;;;;;;;5087310;28;20032;-41
2022/10/01 11:08:41;;;;;;;0.80;0.80;;;;;;;;;;5073626;28;20502;-42
2022/10/01 11:11:18;;;;;;;0.60;0.60;;;;;;;;;;5082384;28;20028;-42
2022/10/01 11:13:54;;;;;;;0.98;0.88;;;;;;;;;;5077330;28;20039;-42
2022/10/01 11:16:20;;;;;;;0.85;0.70;;;;;;;;;;5081248;28;20028;-41
2022/10/01 11:19:06;;;;;;;0.70;0.65;;;;;;;;;;5082441;28;20062;-42
2022/10/01 11:21:43;;;;;;;1.08;0.98;;;;;;;;;;5084464;28;20059;-42
2022/10/01 11:24:31;;;;;;;1.05;0.80;;;;;;;;;;5088209;28;20023;-42
2022/10/01 11:27:14;;;;;;;0.73;0.73;;;;;;;;;;5082103;28;20024;-42
2022/10/01 11:29:40;;;;;;;0.80;0.75;;;;;;;;;;5084502;28;20415;-42
2022/10/01 11:32:25;;;;;;;1.10;1.00;;;;;;;;;;5084144;28;20036;-42
2022/10/01 11:34:52;;;;;;;;;;;;;;;;;;5084866;28;20051;-41
2022/10/01 11:37:34;;;;;;;0.80;0.80;;;;;;;;;;5078569;28;19915;-42
2022/10/01 11:40:04;;;;;;;0.80;0.80;;;;;;;;;;5077198;28;20031;-43
2022/10/01 11:42:34;;;;;;;0.80;0.80;;;;;;;;;;5083816;28;20036;-42
2022/10/01 11:45:20;;;;;;;1.13;1.05;;;;;;;;;;5088133;28;20028;-42
2022/10/01 11:47:49;;;;;;;1.08;0.98;;;;;;;;;;5087246;28;20085;-42
2022/10/01 11:50:35;;;;;;;0.75;0.60;;;;;;;;;;5080184;28;20031;-42
2022/10/01 11:53:05;;;;;;;0.77;0.70;;;;;;;;;;5070730;28;20056;-42
2022/10/01 11:58:51;;;;;;;0.50;0.50;;;;;;;;;;5077421;28;20094;-42
2022/10/01 12:01:26;;;;;;;1.38;0.98;;;;;;;;;;5067466;28;20135;-42
2022/10/01 12:03:52;;;;;;;2.08;1.20;;;;;;;;;;5072184;28;20033;-42
2022/10/01 12:06:33;;;;;;;1.15;1.00;;;;;;;;;;5066761;28;20057;-42
2022/10/01 12:09:05;;;;;;;1.52;1.00;;;;;;;;;;5066407;28;20025;-42
2022/10/01 12:11:35;;;;;;;1.13;0.90;;;;;;;;;;5068807;28;20036;-42
2022/10/01 12:14:09;;;;;;;1.05;0.75;;;;;;;;;;5067294;28;20040;-42
2022/10/01 12:16:35;;;;;;;1.63;1.10;;;;;;;;;;5067060;28;20021;-42
2022/10/01 12:19:09;;;;;;;0.93;0.82;;;;;;;;;;5071686;28;20105;-41
2022/10/01 12:21:41;;;;;;;0.70;0.70;;;;;;;;;;5078668;28;20510;-42
2022/10/01 12:24:15;;;;;;;1.20;0.70;;;;;;;;;;5078009;28;20115;-42
2022/10/01 12:26:56;;;;;;;0.90;0.80;;;;;;;;;;5073088;28;20028;-42
2022/10/01 12:29:25;;;;;;;1.40;0.73;;;;;;;;;;5083149;28;20036;-42
2022/10/01 12:31:58;;;;;;;1.25;0.77;;;;;;;;;;5072671;28;20111;-42
2022/10/01 12:34:32;;;;;;;0.73;0.73;;;;;;;;;;5067389;28;20063;-42
2022/10/01 12:37:09;;;;;;;0.95;0.85;;;;;;;;;;5078265;28;20460;-42
2022/10/01 12:39:54;;;;;;;0.90;0.73;;;;;;;;;;5072451;28;20116;-42
2022/10/01 12:42:22;;;;;;;2.38;1.10;;;;;;;;;;5081016;28;20077;-42
2022/10/01 12:45:09;;;;;;;1.23;1.00;;;;;;;;;;5078423;28;20043;-42
2022/10/01 12:47:39;;;;;;;1.35;0.90;;;;;;;;;;5077778;28;20111;-42
2022/10/01 12:50:10;;;;;;;1.40;1.02;;;;;;;;;;5079243;28;20107;-42
2022/10/01 12:52:39;;;;;;;1.42;1.00;;;;;;;;;;5075738;28;20043;-42
2022/10/01 12:55:35;;;;;;;1.73;1.48;;;;;;;;;;5083887;28;20036;-42
2022/10/01 12:58:20;;;;;;;1.40;0.90;;;;;;;;;;5014609;28;20045;-42
2022/10/01 13:00:55;;;;;;;1.83;1.08;;;;;;;;;;5066283;28;20043;-42
2022/10/01 13:03:27;;;;;;;1.52;1.10;;;;;;;;;;5076771;28;20040;-42
2022/10/01 13:05:53;;;;;;;1.38;0.80;;;;;;;;;;5083481;28;20039;-42
2022/10/01 13:08:25;;;;;;;2.00;1.00;;;;;;;;;;5085694;28;20039;-42
2022/10/01 13:11:10;;;;;;;1.75;0.75;;;;;;;;;;5079564;28;20705;-42
2022/10/01 13:13:37;;;;;;;1.10;1.00;;;;;;;;;;5085568;28;20093;-42
2022/10/01 13:16:09;;;;;;;1.30;0.90;;;;;;;;;;5077179;28;20025;-42
2022/10/01 13:18:43;;;;;;;1.42;0.80;;;;;;;;;;5065739;28;20028;-42
2022/10/01 13:21:09;;;;;;;;;;;;;;;;;;5076048;28;20059;-42
2022/10/01 13:23:38;;;;;;;0.73;0.60;;;;;;;;;;5066447;28;19971;-44
2022/10/01 13:26:16;;;;;;;1.48;1.20;;;;;;;;;;5077677;28;20448;-42
2022/10/01 13:28:42;;;;;;;1.88;1.48;;;;;;;;;;5068075;28;20108;-42
2022/10/01 13:31:13;;;;;;;2.30;1.63;;;;;;;;;;5066178;28;20089;-42
2022/10/01 13:33:40;;;;;;;1.55;1.20;;;;;;;;;;5064435;28;20021;-41
2022/10/01 13:36:06;;;;;;;1.63;1.20;;;;;;;;;;5064671;28;20032;-41
2022/10/01 13:38:42;;;;;;;2.13;1.42;;;;;;;;;;5062732;28;20432;-41
2022/10/01 13:41:22;;;;;;;1.63;1.02;;;;;;;;;;5064486;28;20078;-41
2022/10/01 13:43:55;;;;;;;2.38;1.50;;;;;;;;;;5064335;28;20122;-41
2022/10/01 13:46:22;;;;;;;1.60;1.30;;;;;;;;;;5064566;28;20388;-41
2022/10/01 13:48:49;;;;;;;1.67;1.10;;;;;;;;;;5064014;28;20030;-41
2022/10/01 13:51:16;;;;;;;1.70;1.10;;;;;;;;;;5064707;28;20040;-41
2022/10/01 13:53:42;;;;;;;1.80;1.25;;;;;;;;;;5064728;28;20518;-41
2022/10/01 13:56:13;;;;;;;1.65;1.20;;;;;;;;;;5064352;28;20208;-41
2022/10/01 13:58:42;;;;;;;1.58;1.17;;;;;;;;;;5064121;28;20024;-41
2022/10/01 14:01:21;;;;;;;1.40;1.10;;;;;;;;;;5064910;28;20031;-41
2022/10/01 14:03:56;;;;;;;1.10;1.00;;;;;;;;;;5064182;28;20028;-41
2022/10/01 14:06:30;;;;;;;1.15;1.05;;;;;;;;;;5064369;28;20054;-41
2022/10/01 14:09:05;;;;;;;3.53;1.02;;;;;;;;;;5064147;28;20033;-41
2022/10/01 14:17:00;;;;;;;0.80;0.70;;;;;;;;;;5064402;28;20107;-41
2022/10/01 14:19:27;;;;;;;0.85;0.80;;;;;;;;;;5064122;28;20212;-41
2022/10/01 14:22:02;;;;;;;0.55;0.52;;;;;;;;;;5064270;28;20024;-42
2022/10/01 14:24:37;;;;;;;0.57;0.50;;;;;;;;;;5063924;28;20029;-41
2022/10/01 14:27:22;;;;;;;0.63;0.63;;;;;;;;;;5065825;28;20021;-41
2022/10/01 14:30:14;;;;;;;0.60;0.60;;;;;;;;;;5067570;28;20033;-41
2022/10/01 14:33:00;;;;;;;0.75;0.70;;;;;;;;;;5065864;28;20099;-41
2022/10/01 14:35:26;;;;;;;0.90;0.63;;;;;;;;;;5067852;28;20044;-41
2022/10/01 14:37:58;;;;;;;0.68;0.68;;;;;;;;;;5067373;28;20023;-41
2022/10/01 14:40:24;;;;;;;0.70;0.57;;;;;;;;;;5067360;28;20099;-41
2022/10/01 14:43:00;;;;;;;0.60;0.50;;;;;;;;;;5067485;28;20017;-41
2022/10/01 14:45:26;;;;;;;0.68;0.50;;;;;;;;;;5067761;28;20063;-41
2022/10/01 14:48:05;;;;;;;0.52;0.50;;;;;;;;;;5067122;28;20100;-41
2022/10/01 14:50:36;;;;;;;0.60;0.50;;;;;;;;;;5067335;28;20437;-41
2022/10/01 14:53:04;;;;;;;0.57;0.50;;;;;;;;;;5067085;28;20028;-42
2022/10/01 14:55:30;;;;;;;0.57;0.40;;;;;;;;;;5066976;28;20052;-42
2022/10/01 14:57:57;;;;;;;1.00;0.50;;;;;;;;;;5067227;28;20029;-42
2022/10/01 15:00:25;;;;;;;0.40;0.30;;;;;;;;;;5067290;28;20487;-42
2022/10/01 15:02:53;;;;;;;0.47;0.43;;;;;;;;;;5067321;28;20514;-42
2022/10/01 15:05:27;;;;;;;0.40;0.40;;;;;;;;;;5067699;28;20052;-42
2022/10/01 15:07:54;;;;;;;0.30;0.30;;;;;;;;;;5067172;28;20047;-41